This is the latest recevied weather packets stored in our database for station/object W7OG-10. If no packets are shown the sender has not sent any weather packets the latest 10 day(s).
| Time | Temp. | Humidity | Pressure | Rain* | Wind** | Luminosity | Snow |
|---|---|---|---|---|---|---|---|
| 1778020702 | 27.78° C | 91% | 1014.9 hPa | 0 mm | - | - | - |
| 1778020082 | 27.78° C | 91% | 1015 hPa | 0 mm | - | - | - |
| 1778009283 | 26.11° C | 95% | 1015.8 hPa | 0 mm | - | - | - |
| 1778008084 | 25.56° C | 96% | 1015.8 hPa | 0 mm | - | - | - |
| 1778006283 | 25.56° C | 96% | 1015.8 hPa | 0 mm | - | - | - |
| 1778003884 | 25.56° C | 99% | 1015.8 hPa | 0 mm | - | - | - |
| 1778002684 | 25° C | 100% | 1015.7 hPa | 0 mm | - | - | - |
| 1777922890 | 31.11° C | 61% | 1008 hPa | 0 mm | - | - | - |
| 1777922289 | 30.56° C | 63% | 1008 hPa | 0 mm | - | - | - |
| 1777921090 | 30.56° C | 65% | 1007.9 hPa | 0 mm | - | - | - |
| 1777920490 | 30° C | 66% | 1007.9 hPa | 0 mm | - | - | - |
| 1777917490 | 28.89° C | 79% | 1008 hPa | 0 mm | - | - | - |
| 1777912091 | 28.33° C | 85% | 1006 hPa | 0 mm | - | - | - |
| 1777909690 | 27.78° C | 83% | 1007.9 hPa | 0 mm | - | - | - |
| 1777907891 | 27.22° C | 86% | 1008.6 hPa | 0 mm | - | - | - |
| 1777906111 | 26.67° C | 88% | 1008.8 hPa | 0 mm | - | - | - |
| 1777901291 | 23.89° C | 90% | 1008.5 hPa | 0 mm | - | - | - |
| 1777899491 | 23.89° C | 89% | 1008.4 hPa | 0 mm | - | - | - |
| 1777895892 | 24.44° C | 89% | 1008.3 hPa | 0 mm | - | - | - |
| 1777884492 | 25.56° C | 86% | 1007.8 hPa | 0 mm | - | - | - |
| 1777879093 | 26.11° C | 78% | 1007.6 hPa | 0 mm | - | - | - |
| 1777876693 | 26.11° C | 79% | 1007.4 hPa | 0 mm | - | - | - |
| 1777876094 | 26.11° C | 79% | 1007.5 hPa | 0 mm | - | - | - |
| 1777874313 | 26.67° C | 79% | 1007.4 hPa | 0 mm | - | - | - |
| 1777872493 | 27.22° C | 77% | 1007.3 hPa | 0 mm | - | - | - |
* Rain latest hour (hover to see other rain measurements)
** Current wind speed in m/s (hover to see current wind gust speed)